Gracechurch Harp — V2CN7 — position and weather

sailwx.info

Track history (hours):
 
Tides and Currents Weather Stations Pressure Air Temp Water Temp Dewpoint Dewpoint Depression Visibility Wind Speed Wind Dir Waves Ship Positions

Gracechurch Harp

Last reported at 2018-Jul-18 07:38 UTC. Time now 2018-Jul-22 08:31 UTC.
Position N 25°30' W 079°26'.

Length 139 m; draft 5.5 m.

Type: Ship. MMSI: 305055000.

Date/timePositionNaut miles runAvg speedWind from/ knotsBaromVisibWave heightAir tempDewpointWater temp
2018-Jul-18 07:38N 25°30' W 079°26'414.5
2018-Jul-18 07:22N 25°34' W 079°27'514.3
2018-Jul-18 07:00N 25°39' W 079°27'713.7
2018-Jul-18 06:30N 25°46' W 079°29'5 9.7
2018-Jul-18 06:00N 25°50' W 079°31'4 7.2
2018-Jul-18 05:30N 25°52' W 079°35'4 7.4
2018-Jul-18 05:00N 25°53' W 079°39'713.8
2018-Jul-18 04:30N 25°57' W 079°45'713.6
2018-Jul-18 04:00N 25°60' W 079°52'713.5
2018-Jul-18 03:30N 26°03' W 079°59'612.5
2018-Jul-18 03:00N 26°06' W 080°05'2 4.6
2018-Jul-18 02:28N 26°04' W 080°07'0 0.0
2018-Jul-18 01:58N 26°04' W 080°07'0 0.0
2018-Jul-18 01:28N 26°04' W 080°07'0 0.0
2018-Jul-18 00:58N 26°04' W 080°07'0 0.0
2018-Jul-18 00:28N 26°04' W 080°07'0 0.0
2018-Jul-17 23:58N 26°04' W 080°07'0 0.0
2018-Jul-17 23:28N 26°04' W 080°07'0 0.0
2018-Jul-17 22:58N 26°04' W 080°07'0 0.0
2018-Jul-17 22:28N 26°04' W 080°07'0 0.0
2018-Jul-17 21:58N 26°04' W 080°07'0 0.0
2018-Jul-17 21:28N 26°04' W 080°07'0 0.0
2018-Jul-17 20:58N 26°04' W 080°07'0 0.0
2018-Jul-17 20:28N 26°04' W 080°07'0 0.0
2018-Jul-17 19:55N 26°04' W 080°07'0 0.0
2018-Jul-17 19:19N 26°04' W 080°07'0 0.0
2018-Jul-17 18:49N 26°04' W 080°07'0 0.0
2018-Jul-17 18:22N 26°04' W 080°07'0 0.0
2018-Jul-17 18:00N 26°04' W 080°07'1 1.6
2018-Jul-17 17:30N 26°05' W 080°07'4 8.0
2018-Jul-17 17:00N 26°05' W 080°02'714.9
2018-Jul-17 16:30N 26°01' W 079°55'917.3
2018-Jul-17 16:00N 25°56' W 079°48'917.0
2018-Jul-17 15:30N 25°49' W 079°42'611.7
2018-Jul-17 15:00N 25°44' W 079°40'713.7
2018-Jul-17 14:30N 25°37' W 079°39'918.4
2018-Jul-17 14:00N 25°28' W 079°37'  
2018-Jul-10 06:08N 25°35' W 079°28'213.5
2018-Jul-10 05:59N 25°37' W 079°29'613.3
2018-Jul-10 05:30N 25°43' W 079°30'612.4
2018-Jul-10 05:00N 25°49' W 079°33'4 7.1
2018-Jul-10 04:30N 25°52' W 079°36'3 6.3
2018-Jul-10 04:00N 25°53' W 079°39'5 9.4
2018-Jul-10 03:30N 25°55' W 079°44'713.4
2018-Jul-10 03:00N 25°58' W 079°50'713.5
2018-Jul-10 02:30N 26°01' W 079°57'713.4
2018-Jul-10 01:59N 26°04' W 080°04'3 5.8
2018-Jul-10 01:30N 26°05' W 080°07'1 1.2
2018-Jul-10 00:55N 26°04' W 080°07'0 0.0
2018-Jul-10 00:20N 26°04' W 080°07'0 0.0
2018-Jul-09 23:55N 26°04' W 080°07'0 0.0
2018-Jul-09 23:27N 26°04' W 080°07'0 0.0
2018-Jul-09 22:55N 26°04' W 080°07'0 0.0
2018-Jul-09 22:27N 26°04' W 080°07'0 0.0
2018-Jul-09 21:57N 26°04' W 080°07'0 0.0
2018-Jul-09 21:25N 26°04' W 080°07'0 0.0
2018-Jul-09 20:57N 26°04' W 080°07'0 0.0
2018-Jul-09 20:27N 26°04' W 080°07'0 0.0
2018-Jul-09 19:57N 26°04' W 080°07'0 0.0
2018-Jul-09 19:27N 26°04' W 080°07'0 0.0
2018-Jul-09 18:57N 26°04' W 080°07'0 0.0
2018-Jul-09 18:25N 26°04' W 080°07'0 0.0
2018-Jul-09 17:57N 26°04' W 080°07'0 0.0
2018-Jul-09 17:27N 26°04' W 080°07'0 0.0
2018-Jul-09 16:57N 26°04' W 080°07'0 0.0
2018-Jul-09 16:27N 26°04' W 080°07'0 0.0
2018-Jul-09 15:51N 26°04' W 080°07'0 0.0
2018-Jul-09 15:25N 26°04' W 080°07'0 0.0
2018-Jul-09 14:55N 26°04' W 080°07'0 0.0
2018-Jul-09 14:25N 26°04' W 080°07'0 0.0
2018-Jul-09 13:55N 26°04' W 080°07'0 0.0
2018-Jul-09 13:25N 26°04' W 080°07'0 0.0
2018-Jul-09 12:55N 26°04' W 080°07'0 0.0
2018-Jul-09 12:25N 26°04' W 080°07'0 0.0
2018-Jul-09 11:54N 26°04' W 080°07'0 0.8
2018-Jul-09 11:31N 26°04' W 080°07'3 6.4
2018-Jul-09 11:00N 26°06' W 080°04'4 7.5
2018-Jul-09 10:30N 26°04' W 080°00'510.5
2018-Jul-09 10:00N 26°01' W 079°55'510.4
2018-Jul-09 09:30N 25°59' W 079°50'510.3
2018-Jul-09 08:59N 25°56' W 079°45'4 9.2
2018-Jul-09 08:30N 25°53' W 079°41'610.9
2018-Jul-09 07:59N 25°48' W 079°41'510.9
2018-Jul-09 07:30N 25°43' W 079°40'611.2
2018-Jul-09 07:00N 25°37' W 079°40'917.6
2018-Jul-09 06:30N 25°28' W 079°39'  
Track history (hours):
 
Tides and Currents Weather Stations Pressure Air Temp Water Temp Dewpoint Dewpoint Depression Visibility Wind Speed Wind Dir Waves Ship Positions

Gracechurch Harp

Last reported at 2018-Jul-18 07:38 UTC. Time now 2018-Jul-22 08:31 UTC.
Position N 25°30' W 079°26'.

Length 139 m; draft 5.5 m.

Type: Ship. MMSI: 305055000.

Date/timePositionNaut miles runAvg speedWind from/ knotsBaromVisibWave heightAir tempDewpointWater temp
2018-Jul-18 07:38N 25°30' W 079°26'414.5
2018-Jul-18 07:22N 25°34' W 079°27'514.3
2018-Jul-18 07:00N 25°39' W 079°27'713.7
2018-Jul-18 06:30N 25°46' W 079°29'5 9.7
2018-Jul-18 06:00N 25°50' W 079°31'4 7.2
2018-Jul-18 05:30N 25°52' W 079°35'4 7.4
2018-Jul-18 05:00N 25°53' W 079°39'713.8
2018-Jul-18 04:30N 25°57' W 079°45'713.6
2018-Jul-18 04:00N 25°60' W 079°52'713.5
2018-Jul-18 03:30N 26°03' W 079°59'612.5
2018-Jul-18 03:00N 26°06' W 080°05'2 4.6
2018-Jul-18 02:28N 26°04' W 080°07'0 0.0
2018-Jul-18 01:58N 26°04' W 080°07'0 0.0
2018-Jul-18 01:28N 26°04' W 080°07'0 0.0
2018-Jul-18 00:58N 26°04' W 080°07'0 0.0
2018-Jul-18 00:28N 26°04' W 080°07'0 0.0
2018-Jul-17 23:58N 26°04' W 080°07'0 0.0
2018-Jul-17 23:28N 26°04' W 080°07'0 0.0
2018-Jul-17 22:58N 26°04' W 080°07'0 0.0
2018-Jul-17 22:28N 26°04' W 080°07'0 0.0
2018-Jul-17 21:58N 26°04' W 080°07'0 0.0
2018-Jul-17 21:28N 26°04' W 080°07'0 0.0
2018-Jul-17 20:58N 26°04' W 080°07'0 0.0
2018-Jul-17 20:28N 26°04' W 080°07'0 0.0
2018-Jul-17 19:55N 26°04' W 080°07'0 0.0
2018-Jul-17 19:19N 26°04' W 080°07'0 0.0
2018-Jul-17 18:49N 26°04' W 080°07'0 0.0
2018-Jul-17 18:22N 26°04' W 080°07'0 0.0
2018-Jul-17 18:00N 26°04' W 080°07'1 1.6
2018-Jul-17 17:30N 26°05' W 080°07'4 8.0
2018-Jul-17 17:00N 26°05' W 080°02'714.9
2018-Jul-17 16:30N 26°01' W 079°55'917.3
2018-Jul-17 16:00N 25°56' W 079°48'917.0
2018-Jul-17 15:30N 25°49' W 079°42'611.7
2018-Jul-17 15:00N 25°44' W 079°40'713.7
2018-Jul-17 14:30N 25°37' W 079°39'918.4
2018-Jul-17 14:00N 25°28' W 079°37'  
2018-Jul-10 06:08N 25°35' W 079°28'213.5
2018-Jul-10 05:59N 25°37' W 079°29'613.3
2018-Jul-10 05:30N 25°43' W 079°30'612.4
2018-Jul-10 05:00N 25°49' W 079°33'4 7.1
2018-Jul-10 04:30N 25°52' W 079°36'3 6.3
2018-Jul-10 04:00N 25°53' W 079°39'5 9.4
2018-Jul-10 03:30N 25°55' W 079°44'713.4
2018-Jul-10 03:00N 25°58' W 079°50'713.5
2018-Jul-10 02:30N 26°01' W 079°57'713.4
2018-Jul-10 01:59N 26°04' W 080°04'3 5.8
2018-Jul-10 01:30N 26°05' W 080°07'1 1.2
2018-Jul-10 00:55N 26°04' W 080°07'0 0.0
2018-Jul-10 00:20N 26°04' W 080°07'0 0.0
2018-Jul-09 23:55N 26°04' W 080°07'0 0.0
2018-Jul-09 23:27N 26°04' W 080°07'0 0.0
2018-Jul-09 22:55N 26°04' W 080°07'0 0.0
2018-Jul-09 22:27N 26°04' W 080°07'0 0.0
2018-Jul-09 21:57N 26°04' W 080°07'0 0.0
2018-Jul-09 21:25N 26°04' W 080°07'0 0.0
2018-Jul-09 20:57N 26°04' W 080°07'0 0.0
2018-Jul-09 20:27N 26°04' W 080°07'0 0.0
2018-Jul-09 19:57N 26°04' W 080°07'0 0.0
2018-Jul-09 19:27N 26°04' W 080°07'0 0.0
2018-Jul-09 18:57N 26°04' W 080°07'0 0.0
2018-Jul-09 18:25N 26°04' W 080°07'0 0.0
2018-Jul-09 17:57N 26°04' W 080°07'0 0.0
2018-Jul-09 17:27N 26°04' W 080°07'0 0.0
2018-Jul-09 16:57N 26°04' W 080°07'0 0.0
2018-Jul-09 16:27N 26°04' W 080°07'0 0.0
2018-Jul-09 15:51N 26°04' W 080°07'0 0.0
2018-Jul-09 15:25N 26°04' W 080°07'0 0.0
2018-Jul-09 14:55N 26°04' W 080°07'0 0.0
2018-Jul-09 14:25N 26°04' W 080°07'0 0.0
2018-Jul-09 13:55N 26°04' W 080°07'0 0.0
2018-Jul-09 13:25N 26°04' W 080°07'0 0.0
2018-Jul-09 12:55N 26°04' W 080°07'0 0.0
2018-Jul-09 12:25N 26°04' W 080°07'0 0.0
2018-Jul-09 11:54N 26°04' W 080°07'0 0.8
2018-Jul-09 11:31N 26°04' W 080°07'3 6.4
2018-Jul-09 11:00N 26°06' W 080°04'4 7.5
2018-Jul-09 10:30N 26°04' W 080°00'510.5
2018-Jul-09 10:00N 26°01' W 079°55'510.4
2018-Jul-09 09:30N 25°59' W 079°50'510.3
2018-Jul-09 08:59N 25°56' W 079°45'4 9.2
2018-Jul-09 08:30N 25°53' W 079°41'610.9
2018-Jul-09 07:59N 25°48' W 079°41'510.9
2018-Jul-09 07:30N 25°43' W 079°40'611.2
2018-Jul-09 07:00N 25°37' W 079°40'917.6
2018-Jul-09 06:30N 25°28' W 079°39'  

Dump ship's entire track history